createdAt,value
2019-02-03T00:00:35.741Z,7.72
2019-02-03T00:03:05.211Z,5.03
2019-02-03T00:05:34.933Z,20.00
2019-02-03T00:08:04.337Z,30.20
2019-02-03T00:10:33.705Z,33.02
2019-02-03T00:13:03.077Z,18.32
2019-02-03T00:15:32.411Z,17.77
2019-02-03T00:18:01.827Z,13.80
2019-02-03T00:20:31.181Z,10.78
2019-02-03T00:23:00.583Z,11.85
2019-02-03T00:25:29.923Z,10.93
2019-02-03T00:27:59.293Z,7.12
2019-02-03T00:30:28.625Z,7.10
2019-02-03T00:32:58.199Z,12.73
2019-02-03T00:35:36.814Z,8.43
2019-02-03T00:38:06.287Z,8.43
2019-02-03T00:40:35.713Z,9.70
2019-02-03T00:43:05.131Z,8.90
2019-02-03T00:45:34.504Z,11.20
2019-02-03T00:48:03.985Z,10.38
2019-02-03T00:50:33.355Z,10.13
2019-02-03T00:53:02.695Z,17.37
2019-02-03T00:55:33.169Z,8.60
2019-02-03T00:58:02.506Z,5.75
2019-02-03T01:00:31.879Z,6.28
2019-02-03T01:03:01.228Z,8.13
2019-02-03T01:05:30.591Z,7.00
2019-02-03T01:08:00.168Z,6.85
2019-02-03T01:10:29.798Z,7.25
2019-02-03T01:12:59.171Z,7.37
2019-02-03T01:15:28.506Z,8.70
2019-02-03T01:17:57.866Z,5.47
2019-02-03T01:20:27.843Z,10.85
2019-02-03T01:22:57.244Z,5.15
2019-02-03T01:25:26.596Z,5.90
2019-02-03T01:27:56.294Z,5.72
2019-02-03T01:30:25.981Z,5.37
2019-02-03T01:32:55.510Z,6.45
2019-02-03T01:35:24.876Z,4.87
2019-02-03T01:37:54.612Z,7.30
2019-02-03T01:40:23.959Z,3.55
2019-02-03T01:42:53.331Z,6.28
2019-02-03T01:45:22.791Z,6.08
2019-02-03T01:47:52.155Z,6.40
2019-02-03T01:50:21.493Z,9.33
2019-02-03T01:52:50.845Z,8.08
2019-02-03T01:55:22.374Z,6.50
2019-02-03T01:57:51.749Z,8.45
2019-02-03T02:00:23.259Z,6.70
2019-02-03T02:02:52.937Z,6.25
2019-02-03T02:05:22.304Z,4.10
2019-02-03T02:07:52.265Z,12.00
2019-02-03T02:10:24.050Z,3.50
2019-02-03T02:12:53.414Z,6.53
2019-02-03T02:15:22.799Z,9.33
2019-02-03T02:17:52.821Z,6.15
2019-02-03T02:20:26.745Z,5.62
2019-02-03T02:22:57.232Z,8.43
2019-02-03T02:25:26.654Z,7.87
2019-02-03T02:27:56.003Z,5.72
2019-02-03T02:30:26.861Z,4.28
2019-02-03T02:32:56.343Z,4.35
2019-02-03T02:35:25.678Z,3.87
2019-02-03T02:38:05.849Z,7.85
2019-02-03T02:40:26.162Z,4.95
2019-02-03T02:42:55.928Z,8.30
2019-02-03T02:45:25.271Z,7.50
2019-02-03T02:47:54.748Z,6.05
2019-02-03T02:50:26.596Z,3.72
2019-02-03T02:52:55.939Z,7.10
2019-02-03T02:55:49.308Z,6.47
2019-02-03T02:58:18.663Z,5.87
2019-02-03T03:00:48.047Z,5.58
2019-02-03T03:03:17.396Z,4.78
2019-02-03T03:05:47.234Z,4.05
2019-02-03T03:08:19.576Z,4.25
2019-02-03T03:10:48.780Z,10.13
2019-02-03T03:13:18.243Z,7.72
2019-02-03T03:15:47.581Z,2.98
2019-02-03T03:18:16.937Z,4.30
2019-02-03T03:20:46.350Z,5.55
2019-02-03T03:23:15.719Z,4.92
2019-02-03T03:25:45.053Z,6.25
2019-02-03T03:28:14.392Z,3.30
2019-02-03T03:30:43.755Z,7.10
2019-02-03T03:33:13.407Z,6.42
2019-02-03T03:35:42.778Z,5.15
2019-02-03T03:38:12.133Z,5.83
2019-02-03T03:40:41.595Z,11.08
2019-02-03T03:43:10.944Z,6.15
2019-02-03T03:45:40.312Z,5.42
2019-02-03T03:48:09.686Z,5.35
2019-02-03T03:50:39.059Z,7.05
2019-02-03T03:53:08.428Z,5.60
2019-02-03T03:55:37.773Z,3.65
2019-02-03T03:58:07.126Z,7.58
2019-02-03T04:00:36.556Z,4.33
2019-02-03T04:03:06.034Z,6.67
2019-02-03T04:05:35.375Z,3.83
2019-02-03T04:08:04.881Z,8.53
2019-02-03T04:10:34.327Z,10.40
2019-02-03T04:13:03.678Z,10.03
2019-02-03T04:15:33.039Z,5.70
2019-02-03T04:18:03.852Z,6.40
2019-02-03T04:20:34.481Z,5.05
2019-02-03T04:23:03.870Z,4.65
2019-02-03T04:25:35.031Z,6.15
2019-02-03T04:28:04.587Z,5.25
2019-02-03T04:30:34.056Z,4.30
2019-02-03T04:33:03.514Z,4.85
2019-02-03T04:35:32.859Z,3.52
2019-02-03T04:38:02.254Z,7.47
2019-02-03T04:40:31.888Z,3.75
2019-02-03T04:43:01.236Z,3.77
2019-02-03T04:45:30.605Z,5.87
2019-02-03T04:47:59.950Z,4.95
2019-02-03T04:50:29.422Z,5.42
2019-02-03T04:52:58.761Z,3.00
2019-02-03T04:55:28.138Z,3.55
2019-02-03T04:57:57.525Z,5.58
2019-02-03T05:00:26.870Z,4.42
2019-02-03T05:02:56.224Z,6.83
2019-02-03T05:05:25.596Z,6.45
2019-02-03T05:07:55.352Z,7.78
2019-02-03T05:10:24.837Z,5.85
2019-02-03T05:12:54.187Z,4.50
2019-02-03T05:15:24.929Z,4.67
2019-02-03T05:17:56.067Z,5.97
2019-02-03T05:20:27.193Z,4.67
2019-02-03T05:22:56.574Z,4.42
2019-02-03T05:25:25.984Z,5.58
2019-02-03T05:27:55.355Z,6.58
2019-02-03T05:30:29.969Z,6.15
2019-02-03T05:32:59.470Z,9.33
2019-02-03T05:35:28.935Z,4.17
2019-02-03T05:37:58.412Z,6.37
2019-02-03T05:40:27.804Z,2.95
2019-02-03T05:42:57.158Z,6.72
2019-02-03T05:45:26.519Z,4.72
2019-02-03T05:47:56.176Z,4.28
2019-02-03T05:50:25.537Z,5.75
2019-02-03T05:52:54.888Z,6.75
2019-02-03T05:55:24.250Z,5.87
2019-02-03T05:57:53.646Z,4.55
2019-02-03T06:00:31.369Z,8.43
2019-02-03T06:03:00.744Z,4.90
2019-02-03T06:05:50.526Z,5.58
2019-02-03T06:08:20.008Z,6.15
2019-02-03T06:10:49.385Z,5.40
2019-02-03T06:13:18.711Z,7.12
2019-02-03T06:15:48.087Z,9.10
2019-02-03T06:18:19.355Z,4.45
2019-02-03T06:20:48.731Z,4.40
2019-02-03T06:23:18.181Z,7.83
2019-02-03T06:25:47.599Z,5.95
2019-02-03T06:28:16.983Z,9.40
2019-02-03T06:31:09.368Z,6.03
2019-02-03T06:33:38.850Z,7.70
2019-02-03T06:36:09.157Z,6.33
2019-02-03T06:38:38.888Z,5.05
2019-02-03T06:41:08.357Z,3.77
2019-02-03T06:43:37.735Z,6.28
2019-02-03T06:46:33.032Z,5.80
2019-02-03T06:49:05.679Z,6.70
2019-02-03T06:51:35.055Z,6.25
2019-02-03T06:54:06.141Z,6.78
2019-02-03T06:56:36.083Z,5.95
2019-02-03T06:59:05.546Z,8.20
2019-02-03T07:01:34.897Z,10.23
2019-02-03T07:04:04.376Z,4.70
2019-02-03T07:06:33.748Z,5.72
2019-02-03T07:09:03.479Z,5.75
2019-02-03T07:11:32.847Z,4.37
2019-02-03T07:14:02.208Z,8.10
2019-02-03T07:16:40.636Z,5.15
2019-02-03T07:19:02.690Z,4.67
2019-02-03T07:21:32.442Z,8.65
2019-02-03T07:24:01.894Z,10.65
2019-02-03T07:26:31.312Z,13.10
2019-02-03T07:29:00.660Z,6.25
2019-02-03T07:31:30.046Z,6.42
2019-02-03T07:33:59.373Z,7.00
2019-02-03T07:36:28.750Z,8.33
2019-02-03T07:38:58.098Z,3.65
2019-02-03T07:41:27.477Z,4.75
2019-02-03T07:43:56.831Z,7.60
2019-02-03T07:46:26.208Z,8.40
2019-02-03T07:48:55.935Z,4.30
2019-02-03T07:51:25.273Z,6.50
2019-02-03T07:53:54.672Z,7.45
2019-02-03T07:56:24.024Z,7.67
2019-02-03T07:58:53.404Z,8.08
2019-02-03T08:01:22.768Z,4.83
2019-02-03T08:03:52.206Z,8.28
2019-02-03T08:06:21.617Z,7.65
2019-02-03T08:08:50.958Z,5.25
2019-02-03T08:11:20.331Z,13.62
2019-02-03T08:13:49.709Z,5.65
2019-02-03T08:16:19.442Z,9.75
2019-02-03T08:18:48.805Z,7.50
2019-02-03T08:21:18.170Z,8.00
2019-02-03T08:23:51.212Z,13.25
2019-02-03T08:26:19.772Z,15.28
2019-02-03T08:28:49.140Z,16.55
2019-02-03T08:31:20.294Z,20.40
2019-02-03T08:33:49.727Z,14.35
2019-02-03T08:36:20.963Z,6.45
2019-02-03T08:38:50.347Z,8.33
2019-02-03T08:41:19.720Z,9.50
2019-02-03T08:43:49.374Z,8.63
2019-02-03T08:46:18.724Z,8.23
2019-02-03T08:48:48.059Z,4.53
2019-02-03T08:51:18.873Z,7.83
2019-02-03T08:53:48.220Z,6.95
2019-02-03T08:56:17.580Z,6.47
2019-02-03T08:58:46.912Z,8.75
2019-02-03T09:01:16.297Z,7.90
2019-02-03T09:03:45.665Z,5.58
2019-02-03T09:06:17.311Z,5.80
2019-02-03T09:08:46.723Z,7.20
2019-02-03T09:11:16.261Z,5.37
2019-02-03T09:13:45.596Z,7.70
2019-02-03T09:16:15.074Z,6.47
2019-02-03T09:18:44.425Z,6.15
2019-02-03T09:21:13.776Z,9.63
2019-02-03T09:23:43.247Z,4.35
2019-02-03T09:26:12.820Z,5.37
2019-02-03T09:28:42.297Z,8.10
2019-02-03T09:31:11.690Z,7.22
2019-02-03T09:33:41.091Z,9.65
2019-02-03T09:36:10.497Z,8.85
2019-02-03T09:38:40.154Z,6.17
2019-02-03T09:41:09.634Z,5.62
2019-02-03T09:43:40.463Z,9.13
2019-02-03T09:46:09.838Z,7.65
2019-02-03T09:48:39.211Z,6.22
2019-02-03T09:51:08.628Z,6.55
2019-02-03T09:53:37.960Z,6.97
2019-02-03T09:56:07.714Z,5.33
2019-02-03T09:58:37.243Z,7.20
2019-02-03T10:01:06.662Z,5.87
2019-02-03T10:03:36.022Z,5.58
2019-02-03T10:06:05.870Z,7.40
2019-02-03T10:08:40.852Z,5.72
2019-02-03T10:11:12.032Z,6.20
2019-02-03T10:13:37.762Z,6.05
2019-02-03T10:16:07.139Z,5.03
2019-02-03T10:18:36.547Z,9.05
2019-02-03T10:21:05.991Z,9.30
2019-02-03T10:23:35.341Z,6.08
2019-02-03T10:26:04.873Z,6.00
2019-02-03T10:28:34.258Z,8.18
2019-02-03T10:31:03.654Z,6.72
2019-02-03T10:33:33.265Z,6.35
2019-02-03T10:36:04.930Z,5.50
2019-02-03T10:38:34.303Z,3.90
2019-02-03T10:41:04.506Z,6.37
2019-02-03T10:43:33.878Z,10.25
2019-02-03T10:46:03.536Z,7.95
2019-02-03T10:48:32.986Z,9.40
2019-02-03T10:51:02.376Z,11.20
2019-02-03T10:53:31.782Z,4.37
2019-02-03T10:56:01.169Z,8.13
2019-02-03T10:58:30.550Z,7.85
2019-02-03T11:00:59.936Z,5.30
2019-02-03T11:03:29.311Z,8.80
2019-02-03T11:05:59.513Z,8.83
2019-02-03T11:08:29.154Z,5.83
2019-02-03T11:10:58.537Z,4.92
2019-02-03T11:13:28.026Z,8.13
2019-02-03T11:15:57.774Z,5.80
2019-02-03T11:18:27.112Z,8.80
2019-02-03T11:20:56.516Z,6.40
2019-02-03T11:23:27.058Z,5.35
2019-02-03T11:25:56.431Z,6.97
2019-02-03T11:28:25.778Z,4.37
2019-02-03T11:30:55.148Z,9.88
2019-02-03T11:33:24.523Z,8.38
2019-02-03T11:35:53.844Z,4.70
2019-02-03T11:38:23.233Z,7.65
2019-02-03T11:40:52.586Z,6.40
2019-02-03T11:43:21.917Z,9.88
2019-02-03T11:45:51.335Z,5.55
2019-02-03T11:48:22.368Z,6.33
2019-02-03T11:50:52.346Z,8.50
2019-02-03T11:53:24.675Z,9.95
2019-02-03T11:55:54.097Z,8.25
2019-02-03T11:58:23.568Z,4.75
2019-02-03T12:00:52.986Z,8.85
2019-02-03T12:03:22.448Z,9.18
2019-02-03T12:05:51.760Z,9.13
2019-02-03T12:08:21.127Z,6.25
2019-02-03T12:10:50.507Z,6.40
2019-02-03T12:13:20.160Z,4.40
2019-02-03T12:15:49.531Z,4.90
2019-02-03T12:18:18.881Z,16.23
2019-02-03T12:20:48.250Z,3.37
2019-02-03T12:23:17.649Z,6.20
2019-02-03T12:25:47.015Z,4.70
2019-02-03T12:28:16.353Z,7.63
2019-02-03T12:30:45.764Z,6.27
2019-02-03T12:33:15.106Z,7.50
2019-02-03T12:35:44.472Z,9.70
2019-02-03T12:38:13.911Z,3.37
2019-02-03T12:40:43.611Z,8.27
2019-02-03T12:43:12.993Z,5.97
2019-02-03T12:45:42.657Z,11.30
2019-02-03T12:48:12.525Z,34.37
2019-02-03T12:50:43.783Z,6.90
2019-02-03T12:53:14.977Z,9.93
2019-02-03T12:55:45.087Z,4.63
2019-02-03T12:58:19.345Z,3.83
2019-02-03T13:00:49.583Z,4.43
2019-02-03T13:03:18.542Z,5.10
2019-02-03T13:05:48.315Z,3.23
2019-02-03T13:08:17.685Z,6.27
2019-02-03T13:10:47.090Z,4.50
2019-02-03T13:13:16.446Z,3.93
2019-02-03T13:15:48.067Z,4.87
2019-02-03T13:18:18.557Z,6.97
2019-02-03T13:20:48.048Z,6.23
2019-02-03T13:23:17.494Z,7.53
2019-02-03T13:25:46.949Z,4.53
2019-02-03T13:28:16.281Z,5.77
2019-02-03T13:30:47.680Z,6.03
2019-02-03T13:33:17.503Z,5.43
2019-02-03T13:35:47.156Z,5.90
2019-02-03T13:38:16.562Z,3.33
2019-02-03T13:40:46.198Z,2.33
2019-02-03T13:43:16.316Z,3.33
2019-02-03T13:45:45.654Z,4.37
2019-02-03T13:48:15.033Z,2.63
2019-02-03T13:50:44.493Z,8.33
2019-02-03T13:53:14.944Z,19.13
2019-02-03T13:55:44.325Z,14.20
2019-02-03T13:58:13.762Z,16.97
2019-02-03T14:00:44.960Z,13.63
2019-02-03T14:03:14.550Z,7.63
2019-02-03T14:05:47.735Z,8.63
2019-02-03T14:08:17.162Z,6.70
2019-02-03T14:10:46.556Z,10.07
2019-02-03T14:13:15.966Z,7.50
2019-02-03T14:15:47.498Z,27.33
2019-02-03T14:18:17.053Z,78.13
2019-02-03T14:20:46.447Z,45.53
2019-02-03T14:23:16.204Z,30.10
2019-02-03T14:25:46.075Z,34.43
2019-02-03T14:30:02.299Z,13.77
2019-02-03T14:32:31.637Z,7.93
2019-02-03T14:35:01.017Z,5.40
2019-02-03T14:37:30.554Z,7.03
2019-02-03T14:39:59.922Z,5.97
2019-02-03T14:42:29.264Z,4.57
2019-02-03T14:44:58.891Z,3.17
2019-02-03T14:47:28.323Z,4.37
2019-02-03T14:50:00.211Z,5.43
2019-02-03T14:52:29.559Z,7.97
2019-02-03T14:54:58.925Z,6.37
2019-02-03T14:57:28.435Z,5.13
2019-02-03T14:59:57.787Z,5.83
2019-02-03T15:02:27.165Z,5.40
2019-02-03T15:04:56.527Z,5.90
2019-02-03T15:07:37.246Z,5.27
2019-02-03T15:09:56.983Z,13.67
2019-02-03T15:12:26.362Z,9.83
2019-02-03T15:14:55.714Z,10.83
2019-02-03T15:17:25.122Z,7.63
2019-02-03T15:19:54.469Z,5.93
2019-02-03T15:22:24.420Z,5.80
2019-02-03T15:24:53.771Z,6.07
2019-02-03T15:27:23.138Z,5.40
2019-02-03T15:29:52.520Z,8.10
2019-02-03T15:32:21.901Z,7.60
2019-02-03T15:34:51.288Z,9.63
2019-02-03T15:37:20.801Z,7.37
2019-02-03T15:39:50.173Z,8.60
2019-02-03T15:42:19.545Z,6.47
2019-02-03T15:44:48.880Z,4.53
2019-02-03T15:47:19.146Z,5.37
2019-02-03T15:49:48.493Z,9.93
2019-02-03T15:52:17.864Z,7.30
2019-02-03T15:54:47.198Z,9.40
2019-02-03T15:57:18.289Z,6.73
2019-02-03T15:59:47.809Z,5.00
2019-02-03T16:02:17.170Z,5.13
2019-02-03T16:04:48.798Z,4.90
2019-02-03T16:07:18.168Z,5.10
2019-02-03T16:09:47.504Z,6.70
2019-02-03T16:12:16.870Z,5.40
2019-02-03T16:14:46.239Z,5.50
2019-02-03T16:17:15.885Z,9.07
2019-02-03T16:19:45.218Z,4.33
2019-02-03T16:22:14.620Z,6.20
2019-02-03T16:24:43.954Z,6.93
2019-02-03T16:27:15.112Z,20.17
2019-02-03T16:29:44.578Z,70.13
2019-02-03T16:32:13.956Z,29.00
2019-02-03T16:34:43.314Z,68.97
2019-02-03T16:37:12.703Z,68.43
2019-02-03T16:39:42.112Z,20.93
2019-02-03T16:42:11.750Z,12.30
2019-02-03T16:44:41.116Z,12.83
2019-02-03T16:47:10.475Z,9.77
2019-02-03T16:49:39.921Z,6.30
2019-02-03T16:52:12.431Z,5.90
2019-02-03T16:54:40.566Z,8.03
2019-02-03T16:57:09.912Z,7.57
2019-02-03T16:59:39.544Z,7.97
2019-02-03T17:02:08.909Z,6.87
2019-02-03T17:04:38.272Z,8.27
2019-02-03T17:07:07.604Z,4.40
2019-02-03T17:09:36.956Z,4.70
2019-02-03T17:12:06.445Z,5.47
2019-02-03T17:14:36.023Z,10.27
2019-02-03T17:17:05.797Z,27.30
2019-02-03T17:19:35.138Z,20.53
2019-02-03T17:22:04.696Z,25.90
2019-02-03T17:24:34.040Z,66.93
2019-02-03T17:27:03.724Z,79.67
2019-02-03T17:29:33.092Z,17.53
2019-02-03T17:32:02.473Z,12.53
2019-02-03T17:34:31.810Z,17.27
2019-02-03T17:37:01.218Z,14.17
2019-02-03T17:39:30.568Z,7.57
2019-02-03T17:42:00.307Z,10.10
2019-02-03T17:44:31.717Z,6.93
2019-02-03T17:47:01.072Z,6.73
2019-02-03T17:49:30.427Z,8.03
2019-02-03T17:51:59.770Z,9.47
2019-02-03T17:54:29.129Z,9.03
2019-02-03T17:56:58.507Z,49.20
2019-02-03T17:59:27.888Z,54.47
2019-02-03T18:01:57.315Z,57.63
2019-02-03T18:04:26.694Z,47.17
2019-02-03T18:06:56.039Z,88.27
2019-02-03T18:09:25.579Z,33.77
2019-02-03T18:11:54.934Z,27.93
2019-02-03T18:14:24.941Z,13.17
2019-02-03T18:16:54.346Z,9.47
2019-02-03T18:19:23.712Z,7.37
2019-02-03T18:21:53.051Z,9.23
2019-02-03T18:24:22.430Z,14.23
2019-02-03T18:26:51.797Z,10.23
2019-02-03T18:29:21.164Z,9.07
2019-02-03T18:31:50.532Z,7.67
2019-02-03T18:34:19.924Z,10.23
2019-02-03T18:36:49.476Z,10.93
2019-02-03T18:39:18.940Z,10.63
2019-02-03T18:41:48.491Z,15.67
2019-02-03T18:44:17.877Z,14.10
2019-02-03T18:46:47.464Z,11.67
2019-02-03T18:49:16.833Z,23.53
2019-02-03T18:51:46.375Z,32.57
2019-02-03T18:54:15.743Z,48.27
2019-02-03T18:56:45.243Z,17.20
2019-02-03T18:59:15.633Z,28.83
2019-02-03T19:01:45.617Z,13.00
2019-02-03T19:04:17.822Z,12.60
2019-02-03T19:06:46.607Z,7.40
2019-02-03T19:09:16.101Z,12.40
2019-02-03T19:11:45.777Z,10.87
2019-02-03T19:14:16.998Z,10.73
2019-02-03T19:16:46.874Z,16.53
2019-02-03T19:19:16.864Z,10.43
2019-02-03T19:21:46.457Z,5.40
2019-02-03T19:24:15.928Z,7.30
2019-02-03T19:26:45.531Z,11.13
2019-02-03T19:29:15.063Z,13.07
2019-02-03T19:31:46.500Z,14.23
2019-02-03T19:34:15.899Z,9.57
2019-02-03T19:36:45.287Z,10.07
2019-02-03T19:39:14.670Z,9.67
2019-02-03T19:41:44.039Z,7.93
2019-02-03T19:44:14.429Z,9.00
2019-02-03T19:46:43.879Z,15.33
2019-02-03T19:49:13.365Z,18.17
2019-02-03T19:51:42.877Z,9.10
2019-02-03T19:54:12.233Z,16.17
2019-02-03T19:56:45.191Z,8.37
2019-02-03T19:59:14.545Z,11.40
2019-02-03T20:01:43.967Z,15.53
2019-02-03T20:04:13.332Z,11.33
2019-02-03T20:06:42.670Z,7.33
2019-02-03T20:09:12.312Z,13.67
2019-02-03T20:11:42.053Z,8.77
2019-02-03T20:14:11.352Z,7.03
2019-02-03T20:16:40.717Z,13.20
2019-02-03T20:19:10.893Z,10.30
2019-02-03T20:21:40.257Z,9.93
2019-02-03T20:24:09.579Z,6.83
2019-02-03T20:26:39.009Z,10.47
2019-02-03T20:29:08.405Z,15.63
2019-02-03T20:31:39.456Z,17.57
2019-02-03T20:34:08.850Z,18.77
2019-02-03T20:36:38.177Z,17.30
2019-02-03T20:39:09.321Z,8.63
2019-02-03T20:41:38.783Z,6.93
2019-02-03T20:44:08.100Z,9.90
2019-02-03T20:46:37.542Z,6.53
2019-02-03T20:49:06.869Z,6.03
2019-02-03T20:51:36.242Z,6.43
2019-02-03T20:54:06.208Z,10.33
2019-02-03T20:56:37.792Z,4.87
2019-02-03T20:59:07.159Z,8.70
2019-02-03T21:01:36.527Z,7.93
2019-02-03T21:04:06.261Z,10.47
2019-02-03T21:06:35.626Z,9.17
2019-02-03T21:09:09.175Z,12.37
2019-02-03T21:11:38.506Z,8.37
2019-02-03T21:14:08.769Z,8.63
2019-02-03T21:16:38.130Z,9.30
2019-02-03T21:19:07.506Z,11.73
2019-02-03T21:21:37.049Z,6.30
2019-02-03T21:24:06.583Z,8.13
2019-02-03T21:26:35.939Z,9.90
2019-02-03T21:29:05.406Z,11.77
2019-02-03T21:31:34.762Z,6.33
2019-02-03T21:34:04.159Z,5.33
2019-02-03T21:36:35.700Z,7.70
2019-02-03T21:39:08.043Z,8.80
2019-02-03T21:41:37.391Z,8.47
2019-02-03T21:44:06.779Z,6.67
2019-02-03T21:46:36.141Z,6.43
2019-02-03T21:49:05.496Z,6.97
2019-02-03T21:51:34.813Z,9.30
2019-02-03T21:54:04.270Z,6.63
2019-02-03T21:56:33.610Z,7.60
2019-02-03T21:59:03.055Z,9.27
2019-02-03T22:01:33.438Z,8.90
2019-02-03T22:04:02.750Z,11.43
2019-02-03T22:06:32.108Z,7.27
2019-02-03T22:09:01.465Z,6.33
2019-02-03T22:11:32.866Z,10.10
2019-02-03T22:14:02.207Z,6.90
2019-02-03T22:16:31.596Z,9.40
2019-02-03T22:19:01.005Z,11.43
2019-02-03T22:21:30.380Z,5.13
2019-02-03T22:23:59.722Z,6.27
2019-02-03T22:26:29.075Z,5.70
2019-02-03T22:28:58.678Z,8.33
2019-02-03T22:31:28.051Z,14.57
2019-02-03T22:33:59.246Z,6.17
2019-02-03T22:36:28.616Z,11.33
2019-02-03T22:38:57.977Z,14.20
2019-02-03T22:41:27.330Z,6.33
2019-02-03T22:43:56.674Z,13.57
2019-02-03T22:46:26.095Z,10.87
2019-02-03T22:48:55.432Z,5.73
2019-02-03T22:51:26.809Z,12.10
2019-02-03T22:53:56.180Z,10.87
2019-02-03T22:56:25.714Z,4.63
2019-02-03T22:58:55.082Z,14.97
2019-02-03T23:01:31.087Z,8.17
2019-02-03T23:04:12.996Z,11.43
2019-02-03T23:06:42.622Z,10.83
2019-02-03T23:09:31.916Z,11.50
2019-02-03T23:12:02.238Z,10.17
2019-02-03T23:14:32.364Z,13.80
2019-02-03T23:17:01.716Z,5.93
2019-02-03T23:19:31.089Z,10.73
2019-02-03T23:22:00.430Z,18.00
2019-02-03T23:24:29.776Z,9.33
2019-02-03T23:26:59.132Z,14.97
2019-02-03T23:29:30.816Z,11.00
2019-02-03T23:32:00.190Z,6.97
2019-02-03T23:34:29.558Z,11.50
2019-02-03T23:36:58.941Z,16.23
2019-02-03T23:39:28.306Z,13.20
2019-02-03T23:41:57.683Z,10.57
2019-02-03T23:44:27.339Z,9.83
2019-02-03T23:46:56.663Z,7.53
2019-02-03T23:49:26.038Z,10.97
2019-02-03T23:51:55.380Z,10.00
2019-02-03T23:54:24.736Z,11.47
2019-02-03T23:56:54.161Z,15.17
2019-02-03T23:59:23.608Z,9.97
